Terminal Aerodrome Forecast
Issued by NWS Brownsville, TX

Home | Current Version | Previous Version | Text Only | Print | Product List | Glossary On
Versions: 1 2 3 4 5 6 7 8 9 10 11 12 13 14 15 16 17
000
FTUS44 KBRO 291123
TAFHRL
TAF
KHRL 291123Z 2912/3012 14006KT 1/2SM FG SCT250
     FM291500 16009KT P6SM SCT250
     FM291800 15015KT P6SM BKN250
     FM300100 11006KT P6SM SCT250=

USA.gov is the U.S. government's official web portal to all federal, state and local government web resources and services.